KPLR/PLR METAR and TAF weather

Enter ICAO airport designator
Station Type Date Time Source
KPLR METAR 2022/08/16 19:15 UTC NOAA

KPLR 161915Z AUTO 35004KT 10SM CLR 30/19 A2996 RMK A01


Station Type Date Time Source
KPLR Decoded METAR 2022/08/16 19:15 UTC NOAA

Station name not available
Aug 16, 2022 - 03:15 PM EDT / 2022.08.16 1915 UTC
Wind: from the N (350 degrees) at 5 MPH (4 KT):0
Visibility: 10 mile(s):0
Sky conditions: clear
Temperature: 86 F (30 C)
Dew Point: 66 F (19 C)
Relative Humidity: 51%
Pressure (altimeter): 29.96 in. Hg (1014 hPa)
ob: KPLR 161915Z AUTO 35004KT 10SM CLR 30/19 A2996 RMK A01
cycle: 19

Station Type Date Time Source
KPLR TAF UTC NOAA

Error!

Example: see airport list